createdAt,value
2017-09-13T00:00:44.684Z,993.35
2017-09-13T00:01:44.665Z,993.36
2017-09-13T00:03:37.599Z,993.35
2017-09-13T00:04:37.613Z,993.31
2017-09-13T00:06:30.578Z,993.30
2017-09-13T00:07:30.563Z,993.30
2017-09-13T00:09:23.533Z,993.24
2017-09-13T00:10:23.514Z,993.24
2017-09-13T00:12:16.454Z,993.25
2017-09-13T00:13:16.469Z,993.22
2017-09-13T00:15:10.457Z,993.15
2017-09-13T00:16:10.434Z,993.12
2017-09-13T00:18:03.369Z,993.14
2017-09-13T00:19:03.384Z,993.10
2017-09-13T00:20:56.354Z,993.07
2017-09-13T00:21:56.333Z,993.08
2017-09-13T00:23:50.262Z,993.09
2017-09-13T00:24:50.273Z,993.14
2017-09-13T00:26:43.245Z,993.07
2017-09-13T00:27:43.223Z,993.06
2017-09-13T00:29:36.163Z,992.94
2017-09-13T00:30:36.170Z,992.90
2017-09-13T00:32:29.151Z,992.95
2017-09-13T00:33:29.128Z,992.93
2017-09-13T00:35:22.115Z,992.86
2017-09-13T00:36:22.111Z,992.86
2017-09-13T00:38:15.022Z,992.83
2017-09-13T00:39:15.032Z,992.83
2017-09-13T00:41:08.009Z,992.75
2017-09-13T00:42:07.984Z,992.72
2017-09-13T00:44:00.938Z,992.64
2017-09-13T00:45:00.940Z,992.61
2017-09-13T00:46:53.907Z,992.60
2017-09-13T00:47:53.890Z,992.68
2017-09-13T00:49:46.836Z,992.59
2017-09-13T00:50:46.849Z,992.57
2017-09-13T00:52:39.819Z,992.61
2017-09-13T00:53:39.800Z,992.58
2017-09-13T00:55:32.741Z,992.58
2017-09-13T00:56:32.760Z,992.55
2017-09-13T00:58:25.724Z,992.54
2017-09-13T00:59:25.707Z,992.53
2017-09-13T01:01:18.648Z,992.45
2017-09-13T01:02:18.661Z,992.40
2017-09-13T01:04:11.659Z,992.39
2017-09-13T01:05:11.630Z,992.40
2017-09-13T01:07:04.597Z,992.39
2017-09-13T01:08:04.593Z,992.35
2017-09-13T01:09:57.525Z,992.25
2017-09-13T01:10:57.537Z,992.19
2017-09-13T01:12:50.511Z,992.16
2017-09-13T01:13:50.483Z,992.08
2017-09-13T01:15:43.420Z,992.09
2017-09-13T01:16:43.436Z,992.09
2017-09-13T01:18:36.411Z,991.97
2017-09-13T01:19:36.426Z,991.92
2017-09-13T01:21:29.329Z,991.85
2017-09-13T01:22:29.341Z,991.82
2017-09-13T01:24:22.311Z,991.78
2017-09-13T01:25:22.329Z,991.82
2017-09-13T01:27:15.229Z,991.71
2017-09-13T01:28:15.239Z,991.66
2017-09-13T01:30:08.221Z,991.72
2017-09-13T01:31:08.194Z,991.72
2017-09-13T01:33:01.177Z,991.67
2017-09-13T01:34:01.164Z,991.66
2017-09-13T01:35:54.117Z,991.70
2017-09-13T01:36:54.105Z,991.71
2017-09-13T01:38:47.095Z,991.70
2017-09-13T01:39:47.059Z,991.69
2017-09-13T01:40:47.079Z,991.60
2017-09-13T01:41:47.096Z,991.56
2017-09-13T01:42:47.115Z,991.58
2017-09-13T01:43:47.134Z,991.59
2017-09-13T01:44:47.159Z,991.55
2017-09-13T01:45:47.175Z,991.52
2017-09-13T01:46:47.195Z,991.50
2017-09-13T01:47:47.218Z,991.47
2017-09-13T01:48:47.233Z,991.42
2017-09-13T01:49:47.252Z,991.37
2017-09-13T01:50:47.272Z,991.31
2017-09-13T01:51:47.297Z,991.29
2017-09-13T01:52:47.312Z,991.28
2017-09-13T01:53:47.346Z,991.18
2017-09-13T01:54:47.352Z,991.18
2017-09-13T01:55:47.372Z,991.04
2017-09-13T01:56:47.389Z,991.01
2017-09-13T01:57:47.415Z,990.96
2017-09-13T01:58:47.430Z,990.90
2017-09-13T01:59:47.453Z,990.85
2017-09-13T02:00:47.468Z,990.77
2017-09-13T02:01:47.487Z,990.69
2017-09-13T02:02:47.508Z,990.64
2017-09-13T02:03:47.533Z,990.63
2017-09-13T02:04:47.546Z,990.55
2017-09-13T02:05:47.566Z,990.53
2017-09-13T02:06:47.587Z,990.50
2017-09-13T02:07:47.610Z,990.52
2017-09-13T02:08:47.633Z,990.51
2017-09-13T02:09:47.644Z,990.49
2017-09-13T02:10:47.662Z,990.56
2017-09-13T02:11:47.684Z,990.55
2017-09-13T02:12:47.705Z,990.51
2017-09-13T02:13:47.724Z,990.55
2017-09-13T02:14:47.744Z,990.52
2017-09-13T02:15:47.760Z,990.52
2017-09-13T02:16:47.779Z,990.52
2017-09-13T02:17:47.812Z,990.46
2017-09-13T02:18:47.827Z,990.50
2017-09-13T02:19:47.838Z,990.61
2017-09-13T02:20:47.857Z,990.59
2017-09-13T02:21:47.879Z,990.63
2017-09-13T02:22:47.903Z,990.63
2017-09-13T02:23:47.915Z,990.53
2017-09-13T02:24:47.937Z,990.54
2017-09-13T02:25:47.957Z,990.44
2017-09-13T02:26:47.976Z,990.39
2017-09-13T02:27:47.994Z,990.31
2017-09-13T02:28:48.018Z,990.36
2017-09-13T02:29:48.037Z,990.45
2017-09-13T02:30:48.052Z,990.41
2017-09-13T02:31:48.072Z,990.47
2017-09-13T02:32:48.093Z,990.50
2017-09-13T02:33:48.114Z,990.49
2017-09-13T02:34:48.132Z,990.51
2017-09-13T02:35:48.151Z,990.46
2017-09-13T02:36:48.169Z,990.38
2017-09-13T02:37:48.189Z,990.34
2017-09-13T02:38:48.209Z,990.35
2017-09-13T02:39:48.228Z,990.31
2017-09-13T02:40:48.249Z,990.28
2017-09-13T02:41:48.269Z,990.21
2017-09-13T02:42:48.292Z,990.21
2017-09-13T02:43:48.307Z,990.20
2017-09-13T02:44:48.329Z,990.17
2017-09-13T02:45:48.348Z,990.20
2017-09-13T02:46:48.367Z,990.17
2017-09-13T02:47:48.386Z,990.20
2017-09-13T02:48:48.406Z,990.13
2017-09-13T02:49:48.427Z,990.05
2017-09-13T02:50:48.463Z,989.95
2017-09-13T02:51:48.469Z,989.94
2017-09-13T02:52:48.484Z,989.92
2017-09-13T02:53:48.504Z,989.91
2017-09-13T02:54:48.535Z,989.89
2017-09-13T02:55:48.548Z,989.84
2017-09-13T02:56:48.566Z,989.80
2017-09-13T02:57:48.583Z,989.79
2017-09-13T02:58:48.602Z,989.70
2017-09-13T02:59:48.619Z,989.60
2017-09-13T03:00:48.640Z,989.56
2017-09-13T03:01:48.661Z,989.55
2017-09-13T03:02:48.682Z,989.54
2017-09-13T03:03:48.703Z,989.49
2017-09-13T03:04:48.720Z,989.40
2017-09-13T03:05:48.741Z,989.33
2017-09-13T03:06:48.767Z,989.27
2017-09-13T03:07:48.779Z,989.16
2017-09-13T03:08:48.806Z,989.12
2017-09-13T03:09:48.818Z,989.04
2017-09-13T03:10:48.838Z,989.02
2017-09-13T03:11:48.858Z,989.06
2017-09-13T03:12:48.878Z,988.97
2017-09-13T03:13:48.895Z,988.96
2017-09-13T03:14:48.916Z,988.88
2017-09-13T03:15:48.937Z,988.92
2017-09-13T03:16:48.955Z,988.93
2017-09-13T03:17:48.979Z,988.88
2017-09-13T03:18:48.993Z,988.80
2017-09-13T03:19:49.014Z,988.74
2017-09-13T03:20:49.052Z,988.72
2017-09-13T03:21:49.059Z,988.70
2017-09-13T03:22:49.075Z,988.62
2017-09-13T03:23:49.093Z,988.66
2017-09-13T03:24:49.114Z,988.60
2017-09-13T03:25:49.133Z,988.56
2017-09-13T03:26:49.155Z,988.51
2017-09-13T03:27:49.170Z,988.49
2017-09-13T03:28:49.205Z,988.45
2017-09-13T03:29:49.215Z,988.35
2017-09-13T03:30:49.234Z,988.36
2017-09-13T03:31:49.253Z,988.41
2017-09-13T03:32:49.270Z,988.50
2017-09-13T03:33:49.291Z,988.49
2017-09-13T03:34:49.313Z,988.50
2017-09-13T03:35:49.329Z,988.41
2017-09-13T03:36:49.353Z,988.32
2017-09-13T03:37:49.380Z,988.31
2017-09-13T03:38:49.391Z,988.20
2017-09-13T03:39:49.406Z,988.24
2017-09-13T03:40:49.427Z,988.15
2017-09-13T03:41:49.449Z,988.07
2017-09-13T03:42:49.468Z,988.04
2017-09-13T03:43:49.487Z,987.99
2017-09-13T03:44:49.508Z,987.98
2017-09-13T03:45:49.545Z,987.91
2017-09-13T03:46:49.549Z,987.85
2017-09-13T03:47:49.565Z,987.77
2017-09-13T03:48:49.585Z,987.78
2017-09-13T03:49:49.606Z,987.76
2017-09-13T03:50:49.630Z,987.69
2017-09-13T03:51:49.649Z,987.62
2017-09-13T03:52:49.666Z,987.54
2017-09-13T03:53:49.697Z,987.52
2017-09-13T03:54:49.709Z,987.46
2017-09-13T03:55:49.720Z,987.31
2017-09-13T03:56:49.746Z,987.20
2017-09-13T03:57:49.762Z,987.18
2017-09-13T03:58:49.783Z,987.15
2017-09-13T03:59:49.803Z,987.14
2017-09-13T04:00:49.820Z,987.27
2017-09-13T04:01:49.842Z,987.34
2017-09-13T04:02:49.865Z,987.31
2017-09-13T04:03:49.879Z,987.26
2017-09-13T04:04:49.902Z,987.22
2017-09-13T04:05:49.919Z,987.23
2017-09-13T04:06:49.940Z,987.24
2017-09-13T04:07:49.956Z,987.19
2017-09-13T04:08:49.977Z,987.16
2017-09-13T04:09:49.997Z,987.19
2017-09-13T04:10:50.017Z,987.17
2017-09-13T04:11:50.039Z,987.10
2017-09-13T04:12:50.058Z,987.07
2017-09-13T04:13:50.076Z,986.99
2017-09-13T04:14:50.095Z,986.88
2017-09-13T04:15:50.116Z,986.81
2017-09-13T04:16:50.132Z,986.81
2017-09-13T04:17:50.163Z,986.79
2017-09-13T04:18:50.172Z,986.77
2017-09-13T04:19:50.192Z,986.84
2017-09-13T04:20:50.211Z,986.80
2017-09-13T04:21:50.230Z,986.82
2017-09-13T04:22:50.251Z,986.77
2017-09-13T04:23:50.270Z,986.74
2017-09-13T04:24:50.327Z,986.80
2017-09-13T04:25:50.314Z,986.69
2017-09-13T04:26:50.330Z,986.62
2017-09-13T04:27:50.347Z,986.53
2017-09-13T04:28:50.371Z,986.45
2017-09-13T04:29:50.390Z,986.47
2017-09-13T04:30:50.410Z,986.50
2017-09-13T04:31:50.424Z,986.40
2017-09-13T04:32:50.452Z,986.44
2017-09-13T04:33:50.465Z,986.30
2017-09-13T04:34:50.486Z,986.23
2017-09-13T04:35:50.514Z,986.30
2017-09-13T04:36:50.527Z,986.17
2017-09-13T04:37:50.546Z,986.22
2017-09-13T04:38:50.569Z,986.17
2017-09-13T04:39:50.584Z,986.20
2017-09-13T04:40:50.604Z,986.19
2017-09-13T04:41:50.622Z,986.19
2017-09-13T04:42:50.644Z,986.11
2017-09-13T04:43:50.660Z,986.14
2017-09-13T04:44:50.683Z,986.06
2017-09-13T04:45:50.700Z,985.98
2017-09-13T04:46:50.720Z,986.01
2017-09-13T04:47:50.760Z,985.96
2017-09-13T04:48:50.756Z,985.88
2017-09-13T04:49:50.776Z,985.85
2017-09-13T04:50:50.802Z,985.80
2017-09-13T04:51:50.818Z,985.83
2017-09-13T04:52:50.834Z,985.81
2017-09-13T04:53:50.857Z,985.73
2017-09-13T04:54:50.893Z,985.77
2017-09-13T04:55:50.895Z,985.76
2017-09-13T04:56:50.913Z,985.73
2017-09-13T04:57:50.942Z,985.66
2017-09-13T04:58:50.967Z,985.65
2017-09-13T04:59:50.971Z,985.54
2017-09-13T05:00:50.993Z,985.56
2017-09-13T05:01:51.018Z,985.44
2017-09-13T05:02:51.038Z,985.44
2017-09-13T05:03:51.052Z,985.39
2017-09-13T05:04:51.084Z,985.39
2017-09-13T05:05:51.089Z,985.41
2017-09-13T05:06:51.112Z,985.44
2017-09-13T05:07:51.130Z,985.43
2017-09-13T05:08:51.149Z,985.46
2017-09-13T05:09:51.169Z,985.35
2017-09-13T05:10:51.188Z,985.27
2017-09-13T05:11:51.208Z,985.26
2017-09-13T05:12:51.228Z,985.20
2017-09-13T05:13:51.252Z,985.31
2017-09-13T05:14:51.269Z,985.31
2017-09-13T05:15:51.290Z,985.26
2017-09-13T05:16:51.314Z,985.15
2017-09-13T05:17:51.337Z,985.12
2017-09-13T05:18:51.347Z,985.16
2017-09-13T05:19:51.368Z,985.08
2017-09-13T05:20:51.382Z,985.10
2017-09-13T05:21:51.405Z,985.11
2017-09-13T05:22:51.423Z,985.09
2017-09-13T05:23:51.449Z,985.12
2017-09-13T05:24:51.463Z,985.15
2017-09-13T05:25:51.482Z,985.06
2017-09-13T05:26:51.511Z,985.01
2017-09-13T05:27:51.521Z,984.85
2017-09-13T05:28:51.539Z,984.96
2017-09-13T05:29:51.565Z,984.96
2017-09-13T05:30:51.579Z,984.97
2017-09-13T05:31:51.597Z,984.93
2017-09-13T05:32:51.623Z,984.96
2017-09-13T05:33:51.640Z,984.98
2017-09-13T05:34:51.661Z,985.01
2017-09-13T05:35:51.678Z,984.95
2017-09-13T05:36:51.699Z,984.94
2017-09-13T05:37:51.720Z,984.72
2017-09-13T05:38:51.752Z,984.58
2017-09-13T05:39:51.755Z,984.27
2017-09-13T05:40:51.777Z,984.81
2017-09-13T05:41:51.794Z,984.86
2017-09-13T05:42:51.823Z,984.93
2017-09-13T05:43:51.833Z,984.88
2017-09-13T05:44:51.855Z,984.75
2017-09-13T05:45:51.873Z,984.61
2017-09-13T05:46:51.906Z,984.54
2017-09-13T05:47:51.922Z,984.30
2017-09-13T05:48:51.937Z,984.43
2017-09-13T05:49:51.953Z,984.67
2017-09-13T05:50:51.973Z,984.63
2017-09-13T05:51:51.994Z,984.68
2017-09-13T05:52:52.016Z,984.68
2017-09-13T05:53:52.033Z,984.65
2017-09-13T05:54:52.055Z,984.57
2017-09-13T05:55:52.070Z,984.51
2017-09-13T05:56:52.103Z,984.47
2017-09-13T05:57:52.109Z,984.44
2017-09-13T05:58:52.131Z,984.43
2017-09-13T05:59:52.155Z,984.44
2017-09-13T06:00:52.170Z,984.50
2017-09-13T06:01:52.190Z,984.57
2017-09-13T06:02:52.213Z,984.50
2017-09-13T06:03:52.233Z,984.44
2017-09-13T06:04:52.254Z,984.35
2017-09-13T06:05:52.274Z,984.31
2017-09-13T06:06:52.294Z,984.36
2017-09-13T06:07:52.332Z,984.39
2017-09-13T06:08:52.340Z,984.41
2017-09-13T06:09:52.345Z,984.50
2017-09-13T06:10:52.372Z,984.46
2017-09-13T06:11:52.399Z,984.40
2017-09-13T06:12:52.407Z,984.37
2017-09-13T06:13:52.426Z,984.35
2017-09-13T06:14:52.445Z,984.36
2017-09-13T06:15:52.560Z,984.22
2017-09-13T06:16:52.488Z,984.23
2017-09-13T06:17:52.510Z,984.12
2017-09-13T06:18:52.524Z,984.18
2017-09-13T06:19:52.545Z,984.21
2017-09-13T06:20:52.562Z,984.11
2017-09-13T06:21:52.585Z,984.16
2017-09-13T06:22:52.603Z,984.09
2017-09-13T06:23:52.623Z,984.19
2017-09-13T06:24:52.650Z,984.17
2017-09-13T06:25:52.661Z,984.18
2017-09-13T06:26:52.694Z,984.14
2017-09-13T06:27:52.702Z,984.13
2017-09-13T06:28:52.721Z,984.04
2017-09-13T06:29:52.750Z,984.15
2017-09-13T06:30:52.768Z,984.13
2017-09-13T06:31:52.780Z,984.05
2017-09-13T06:32:52.805Z,984.09
2017-09-13T06:33:52.825Z,984.01
2017-09-13T06:34:52.844Z,984.04
2017-09-13T06:35:52.858Z,984.13
2017-09-13T06:36:52.887Z,984.12
2017-09-13T06:37:52.902Z,984.07
2017-09-13T06:38:52.921Z,984.01
2017-09-13T06:39:52.947Z,984.06
2017-09-13T06:40:52.962Z,984.02
2017-09-13T06:41:52.979Z,984.04
2017-09-13T06:42:52.997Z,984.12
2017-09-13T06:43:53.016Z,984.00
2017-09-13T06:44:53.038Z,983.91
2017-09-13T06:45:53.066Z,983.93
2017-09-13T06:46:53.082Z,983.94
2017-09-13T06:47:53.097Z,983.93
2017-09-13T06:48:53.122Z,983.89
2017-09-13T06:49:53.157Z,983.83
2017-09-13T06:50:53.157Z,983.81
2017-09-13T06:51:53.203Z,983.92
2017-09-13T06:52:53.207Z,983.97
2017-09-13T06:53:53.217Z,983.69
2017-09-13T06:54:53.244Z,983.76
2017-09-13T06:55:53.267Z,983.86
2017-09-13T06:56:53.275Z,983.77
2017-09-13T06:57:53.308Z,983.76
2017-09-13T06:58:53.312Z,983.58
2017-09-13T06:59:53.346Z,983.52
2017-09-13T07:00:53.356Z,983.59
2017-09-13T07:01:53.392Z,983.54
2017-09-13T07:02:53.406Z,983.51
2017-09-13T07:03:53.414Z,983.55
2017-09-13T07:04:53.441Z,983.63
2017-09-13T07:05:53.452Z,983.65
2017-09-13T07:06:53.482Z,983.58
2017-09-13T07:07:53.504Z,983.65
2017-09-13T07:08:53.513Z,983.59
2017-09-13T07:09:53.533Z,983.63
2017-09-13T07:10:53.561Z,983.54
2017-09-13T07:11:53.577Z,983.54
2017-09-13T07:12:53.606Z,983.61
2017-09-13T07:13:53.614Z,983.53
2017-09-13T07:14:53.639Z,983.53
2017-09-13T07:15:53.673Z,983.62
2017-09-13T07:16:53.671Z,983.68
2017-09-13T07:17:53.693Z,983.72
2017-09-13T07:18:53.716Z,983.54
2017-09-13T07:19:53.746Z,983.51
2017-09-13T07:20:53.757Z,983.56
2017-09-13T07:21:53.786Z,983.56
2017-09-13T07:22:53.797Z,983.60
2017-09-13T07:23:53.816Z,983.55
2017-09-13T07:24:53.832Z,983.58
2017-09-13T07:25:53.859Z,983.57
2017-09-13T07:26:53.878Z,983.57
2017-09-13T07:27:53.901Z,983.61
2017-09-13T07:28:53.912Z,983.60
2017-09-13T07:29:53.935Z,983.50
2017-09-13T07:30:53.955Z,983.52
2017-09-13T07:31:53.972Z,983.49
2017-09-13T07:32:53.991Z,983.52
2017-09-13T07:33:54.009Z,983.54
2017-09-13T07:34:54.032Z,983.52
2017-09-13T07:35:54.049Z,983.57
2017-09-13T07:36:54.076Z,983.53
2017-09-13T07:37:54.095Z,983.46
2017-09-13T07:38:54.114Z,983.51
2017-09-13T07:39:54.148Z,983.51
2017-09-13T07:40:54.152Z,983.62
2017-09-13T07:41:54.179Z,983.65
2017-09-13T07:42:54.194Z,983.73
2017-09-13T07:43:54.219Z,983.65
2017-09-13T07:44:54.251Z,983.65
2017-09-13T07:45:54.254Z,983.67
2017-09-13T07:46:54.285Z,983.62
2017-09-13T07:47:54.296Z,983.67
2017-09-13T07:48:54.312Z,983.89
2017-09-13T07:49:54.346Z,983.84
2017-09-13T07:50:54.363Z,983.74
2017-09-13T07:51:54.485Z,983.72
2017-09-13T07:52:54.397Z,983.62
2017-09-13T07:53:54.416Z,983.72
2017-09-13T07:54:54.438Z,983.78
2017-09-13T07:55:54.472Z,983.77
2017-09-13T07:56:54.510Z,983.80
2017-09-13T07:57:54.499Z,983.87
2017-09-13T07:58:54.522Z,983.87
2017-09-13T07:59:54.539Z,983.99
2017-09-13T08:00:54.563Z,983.93
2017-09-13T08:01:54.585Z,984.18
2017-09-13T08:02:54.602Z,984.05
2017-09-13T08:03:54.619Z,983.96
2017-09-13T08:04:54.641Z,983.94
2017-09-13T08:05:54.676Z,983.81
2017-09-13T08:06:54.684Z,983.82
2017-09-13T08:07:54.707Z,983.67
2017-09-13T08:08:54.727Z,983.58
2017-09-13T08:09:54.752Z,983.51
2017-09-13T08:10:54.767Z,983.56
2017-09-13T08:11:54.794Z,983.61
2017-09-13T08:12:54.809Z,983.63
2017-09-13T08:13:54.831Z,983.64
2017-09-13T08:14:54.857Z,983.68
2017-09-13T08:15:54.875Z,983.78
2017-09-13T08:16:54.913Z,983.75
2017-09-13T08:17:54.919Z,983.78
2017-09-13T08:18:54.934Z,983.81
2017-09-13T08:19:54.953Z,983.84
2017-09-13T08:20:55.105Z,984.43
2017-09-13T08:21:54.996Z,984.13
2017-09-13T08:22:55.028Z,983.97
2017-09-13T08:23:55.050Z,983.92
2017-09-13T08:24:55.084Z,984.30
2017-09-13T08:25:55.085Z,984.06
2017-09-13T08:26:55.106Z,984.70
2017-09-13T08:27:55.135Z,984.78
2017-09-13T08:28:55.148Z,984.65
2017-09-13T08:29:55.168Z,984.02
2017-09-13T08:30:55.204Z,984.22
2017-09-13T08:31:55.208Z,984.63
2017-09-13T08:32:55.237Z,984.36
2017-09-13T08:33:55.253Z,984.58
2017-09-13T08:34:55.274Z,984.93
2017-09-13T08:35:55.295Z,984.83
2017-09-13T08:36:55.321Z,984.60
2017-09-13T08:37:55.352Z,984.71
2017-09-13T08:38:55.376Z,984.71
2017-09-13T08:39:55.381Z,984.48
2017-09-13T08:40:55.533Z,984.76
2017-09-13T08:41:55.424Z,984.38
2017-09-13T08:42:55.448Z,984.16
2017-09-13T08:43:55.489Z,984.01
2017-09-13T08:44:55.493Z,984.14
2017-09-13T08:45:55.524Z,984.03
2017-09-13T08:46:55.549Z,983.95
2017-09-13T08:47:55.562Z,984.09
2017-09-13T08:48:55.596Z,984.89
2017-09-13T08:49:55.613Z,984.48
2017-09-13T08:50:55.629Z,984.23
2017-09-13T08:51:55.653Z,984.20
2017-09-13T08:52:55.697Z,984.23
2017-09-13T08:53:55.702Z,984.29
2017-09-13T08:54:55.734Z,984.14
2017-09-13T08:55:55.741Z,983.91
2017-09-13T08:56:55.767Z,983.85
2017-09-13T08:57:55.799Z,983.73
2017-09-13T08:58:55.818Z,983.74
2017-09-13T08:59:55.834Z,983.77
2017-09-13T09:00:55.852Z,983.92
2017-09-13T09:01:55.879Z,984.11
2017-09-13T09:02:55.904Z,983.95
2017-09-13T09:03:55.932Z,983.89
2017-09-13T09:04:55.949Z,984.10
2017-09-13T09:05:55.971Z,983.96
2017-09-13T09:06:55.991Z,983.98
2017-09-13T09:07:56.013Z,984.14
2017-09-13T09:08:56.039Z,983.95
2017-09-13T09:09:56.060Z,983.79
2017-09-13T09:10:56.092Z,984.09
2017-09-13T09:11:56.111Z,983.88
2017-09-13T09:12:56.133Z,983.89
2017-09-13T09:13:56.163Z,984.20
2017-09-13T09:14:56.173Z,983.72
2017-09-13T09:15:56.206Z,983.91
2017-09-13T09:16:56.222Z,984.40
2017-09-13T09:17:56.242Z,983.85
2017-09-13T09:18:56.269Z,983.73
2017-09-13T09:19:56.290Z,983.71
2017-09-13T09:20:56.328Z,983.91
2017-09-13T09:21:56.344Z,983.95
2017-09-13T09:22:56.362Z,983.60
2017-09-13T09:23:56.380Z,983.64
2017-09-13T09:24:56.405Z,983.49
2017-09-13T09:25:56.440Z,983.27
2017-09-13T09:26:56.457Z,983.22
2017-09-13T09:27:56.477Z,983.28
2017-09-13T09:28:56.507Z,983.35
2017-09-13T09:29:56.522Z,983.54
2017-09-13T09:30:56.544Z,983.45
2017-09-13T09:31:56.564Z,983.88
2017-09-13T09:32:56.589Z,983.69
2017-09-13T09:33:56.611Z,983.63
2017-09-13T09:34:56.642Z,983.55
2017-09-13T09:35:56.655Z,983.44
2017-09-13T09:36:56.678Z,983.24
2017-09-13T09:37:56.704Z,983.37
2017-09-13T09:38:56.736Z,983.16
2017-09-13T09:39:56.760Z,983.18
2017-09-13T09:40:56.772Z,983.18
2017-09-13T09:41:56.799Z,983.44
2017-09-13T09:42:56.817Z,983.18
2017-09-13T09:43:56.845Z,983.01
2017-09-13T09:44:56.881Z,983.18
2017-09-13T09:45:56.889Z,983.39
2017-09-13T09:46:56.916Z,983.47
2017-09-13T09:47:56.936Z,983.33
2017-09-13T09:48:56.957Z,983.42
2017-09-13T09:49:57.021Z,983.35
2017-09-13T09:50:57.006Z,983.35
2017-09-13T09:51:57.029Z,983.30
2017-09-13T09:52:57.050Z,983.15
2017-09-13T09:53:57.069Z,983.15
2017-09-13T09:54:57.092Z,983.27
2017-09-13T09:55:57.114Z,983.37
2017-09-13T09:56:57.145Z,983.60
2017-09-13T09:57:57.159Z,983.21
2017-09-13T09:58:57.183Z,983.40
2017-09-13T09:59:57.239Z,983.22
2017-09-13T10:00:57.233Z,983.19
2017-09-13T10:01:57.265Z,983.23
2017-09-13T10:02:57.287Z,983.31
2017-09-13T10:03:57.298Z,983.24
2017-09-13T10:04:57.336Z,983.02
2017-09-13T10:05:57.346Z,983.15
2017-09-13T10:06:57.371Z,983.11
2017-09-13T10:07:57.390Z,983.18
2017-09-13T10:08:57.429Z,983.07
2017-09-13T10:09:57.435Z,983.18
2017-09-13T10:10:57.465Z,983.22
2017-09-13T10:11:57.482Z,983.13
2017-09-13T10:12:57.514Z,983.44
2017-09-13T10:13:57.535Z,983.49
2017-09-13T10:14:57.688Z,983.15
2017-09-13T10:15:57.582Z,983.36
2017-09-13T10:16:57.604Z,983.43
2017-09-13T10:17:57.622Z,983.47
2017-09-13T10:18:57.648Z,983.28
2017-09-13T10:19:57.669Z,983.40
2017-09-13T10:20:57.696Z,983.68
2017-09-13T10:21:57.720Z,983.30
2017-09-13T10:22:57.742Z,983.26
2017-09-13T10:23:57.763Z,983.48
2017-09-13T10:24:57.791Z,983.53
2017-09-13T10:25:57.814Z,983.37
2017-09-13T10:26:57.834Z,983.63
2017-09-13T10:27:57.863Z,983.15
2017-09-13T10:28:57.878Z,983.28
2017-09-13T10:29:57.908Z,983.53
2017-09-13T10:30:57.932Z,983.29
2017-09-13T10:31:57.959Z,983.33
2017-09-13T10:32:58.010Z,983.21
2017-09-13T10:33:58.003Z,983.08
2017-09-13T10:34:58.101Z,983.39
2017-09-13T10:35:58.056Z,983.17
2017-09-13T10:36:58.069Z,983.00
2017-09-13T10:37:58.094Z,983.01
2017-09-13T10:38:58.199Z,983.17
2017-09-13T10:39:58.188Z,983.40
2017-09-13T10:40:58.163Z,983.29
2017-09-13T10:41:58.189Z,983.02
2017-09-13T10:42:58.207Z,983.65
2017-09-13T10:43:58.231Z,983.59
2017-09-13T10:44:58.262Z,983.46
2017-09-13T10:45:58.282Z,983.33
2017-09-13T10:46:58.314Z,983.54
2017-09-13T10:47:58.324Z,983.37
2017-09-13T10:48:58.347Z,983.52
2017-09-13T10:49:58.381Z,983.31
2017-09-13T10:50:58.405Z,983.26
2017-09-13T10:51:58.423Z,983.14
2017-09-13T10:52:58.449Z,983.34
2017-09-13T10:53:58.467Z,983.54
2017-09-13T10:54:58.508Z,983.36
2017-09-13T10:55:58.514Z,983.33
2017-09-13T10:56:58.541Z,983.44
2017-09-13T10:57:58.559Z,983.22
2017-09-13T10:58:58.583Z,983.40
2017-09-13T10:59:58.610Z,983.44
2017-09-13T11:00:58.639Z,983.36
2017-09-13T11:01:58.656Z,983.45
2017-09-13T11:02:58.679Z,983.54
2017-09-13T11:03:58.712Z,983.27
2017-09-13T11:04:58.726Z,983.28
2017-09-13T11:05:58.748Z,983.35
2017-09-13T11:06:58.777Z,983.38
2017-09-13T11:07:58.797Z,983.28
2017-09-13T11:08:58.819Z,983.50
2017-09-13T11:09:58.845Z,983.48
2017-09-13T11:10:58.871Z,983.28
2017-09-13T11:11:58.893Z,983.30
2017-09-13T11:12:58.920Z,983.32
2017-09-13T11:13:58.938Z,983.40
2017-09-13T11:14:58.962Z,983.67
2017-09-13T11:15:58.985Z,983.29
2017-09-13T11:16:59.009Z,983.33
2017-09-13T11:17:59.034Z,983.51
2017-09-13T11:18:59.055Z,983.48
2017-09-13T11:19:59.088Z,983.29
2017-09-13T11:20:59.102Z,983.50
2017-09-13T11:21:59.127Z,983.45
2017-09-13T11:22:59.154Z,983.40
2017-09-13T11:23:59.172Z,983.08
2017-09-13T11:24:59.202Z,983.33
2017-09-13T11:25:59.221Z,983.24
2017-09-13T11:26:59.246Z,983.37
2017-09-13T11:27:59.283Z,983.45
2017-09-13T11:28:59.293Z,983.09
2017-09-13T11:29:59.327Z,983.28
2017-09-13T11:30:59.339Z,983.31
2017-09-13T11:31:59.365Z,983.51
2017-09-13T11:32:59.391Z,983.36
2017-09-13T11:33:59.408Z,983.51
2017-09-13T11:34:59.430Z,983.51
2017-09-13T11:35:59.458Z,983.60
2017-09-13T11:36:59.479Z,983.45
2017-09-13T11:37:59.509Z,983.57
2017-09-13T11:38:59.524Z,983.67
2017-09-13T11:39:59.569Z,983.74
2017-09-13T11:40:59.570Z,983.68
2017-09-13T11:41:59.595Z,983.73
2017-09-13T11:42:59.620Z,983.78
2017-09-13T11:43:59.644Z,983.71
2017-09-13T11:44:59.664Z,983.60
2017-09-13T11:45:59.688Z,983.43
2017-09-13T11:46:59.709Z,983.48
2017-09-13T11:47:59.735Z,983.58
2017-09-13T11:48:59.759Z,983.58
2017-09-13T11:49:59.781Z,983.72
2017-09-13T11:50:59.805Z,983.65
2017-09-13T11:51:59.829Z,983.68
2017-09-13T11:52:59.852Z,983.62
2017-09-13T11:53:59.874Z,983.49
2017-09-13T11:54:59.902Z,983.52
2017-09-13T11:55:59.925Z,983.44
2017-09-13T11:56:59.949Z,983.68
2017-09-13T11:57:59.971Z,983.53
2017-09-13T11:58:59.994Z,983.68
2017-09-13T12:00:00.015Z,983.64
2017-09-13T12:01:00.060Z,983.65
2017-09-13T12:02:00.070Z,983.68
2017-09-13T12:03:00.089Z,983.59
2017-09-13T12:04:00.114Z,983.66
2017-09-13T12:05:00.133Z,983.89
2017-09-13T12:06:00.160Z,983.85
2017-09-13T12:07:00.182Z,983.76
2017-09-13T12:08:00.206Z,983.80
2017-09-13T12:09:00.228Z,983.89
2017-09-13T12:10:00.254Z,983.81
2017-09-13T12:11:00.278Z,983.69
2017-09-13T12:12:00.301Z,983.94
2017-09-13T12:13:00.325Z,983.77
2017-09-13T12:14:00.347Z,983.76
2017-09-13T12:15:00.370Z,983.76
2017-09-13T12:16:00.399Z,983.74
2017-09-13T12:17:00.417Z,983.86
2017-09-13T12:18:00.443Z,984.14
2017-09-13T12:19:00.461Z,984.00
2017-09-13T12:20:00.486Z,984.10
2017-09-13T12:21:00.517Z,984.13
2017-09-13T12:22:00.530Z,984.11
2017-09-13T12:23:00.555Z,984.11
2017-09-13T12:24:00.580Z,984.21
2017-09-13T12:25:00.600Z,984.21
2017-09-13T12:26:00.624Z,984.13
2017-09-13T12:27:00.647Z,984.22
2017-09-13T12:28:00.668Z,984.29
2017-09-13T12:29:00.690Z,984.23
2017-09-13T12:30:00.718Z,984.26
2017-09-13T12:31:00.746Z,984.32
2017-09-13T12:32:00.760Z,984.27
2017-09-13T12:33:00.785Z,984.29
2017-09-13T12:34:00.810Z,984.28
2017-09-13T12:35:00.828Z,984.29
2017-09-13T12:36:00.845Z,984.37
2017-09-13T12:37:00.873Z,984.23
2017-09-13T12:38:00.890Z,984.26
2017-09-13T12:39:00.918Z,984.26
2017-09-13T12:40:00.935Z,984.36
2017-09-13T12:41:00.968Z,984.45
2017-09-13T12:42:00.988Z,984.40
2017-09-13T12:43:01.007Z,984.46
2017-09-13T12:44:01.030Z,984.69
2017-09-13T12:45:01.047Z,984.81
2017-09-13T12:46:01.075Z,984.61
2017-09-13T12:47:01.092Z,984.69
2017-09-13T12:48:01.111Z,984.65
2017-09-13T12:49:01.145Z,984.65
2017-09-13T12:50:01.159Z,984.47
2017-09-13T12:51:01.183Z,984.61
2017-09-13T12:52:01.206Z,984.41
2017-09-13T12:53:01.223Z,984.61
2017-09-13T12:54:01.252Z,984.70
2017-09-13T12:55:01.269Z,984.54
2017-09-13T12:56:01.293Z,984.65
2017-09-13T12:57:01.311Z,984.65
2017-09-13T12:58:01.334Z,984.69
2017-09-13T12:59:01.359Z,984.69